sensor_id;sensor_type;location;lat;lon;timestamp;P1;durP1;ratioP1;P2;durP2;ratioP2
7983;SDS011;4037;47.980;10.172;2023-09-19T00:00:37;1.30;;;1.20;;
7983;SDS011;4037;47.980;10.172;2023-09-19T00:03:05;3.03;;;1.20;;
7983;SDS011;4037;47.980;10.172;2023-09-19T00:05:34;2.30;;;1.37;;
7983;SDS011;4037;47.980;10.172;2023-09-19T00:08:01;1.50;;;1.20;;
7983;SDS011;4037;47.980;10.172;2023-09-19T00:10:31;1.90;;;1.43;;
7983;SDS011;4037;47.980;10.172;2023-09-19T00:12:59;1.97;;;1.20;;
7983;SDS011;4037;47.980;10.172;2023-09-19T00:15:26;2.40;;;1.17;;
7983;SDS011;4037;47.980;10.172;2023-09-19T00:17:55;1.47;;;1.13;;
7983;SDS011;4037;47.980;10.172;2023-09-19T00:20:22;1.40;;;1.30;;
7983;SDS011;4037;47.980;10.172;2023-09-19T00:22:49;1.80;;;1.10;;
7983;SDS011;4037;47.980;10.172;2023-09-19T00:25:17;1.70;;;1.03;;
7983;SDS011;4037;47.980;10.172;2023-09-19T00:27:43;2.53;;;1.20;;
7983;SDS011;4037;47.980;10.172;2023-09-19T00:30:10;1.50;;;1.10;;
7983;SDS011;4037;47.980;10.172;2023-09-19T00:32:41;2.73;;;1.40;;
7983;SDS011;4037;47.980;10.172;2023-09-19T00:35:07;2.20;;;1.50;;
7983;SDS011;4037;47.980;10.172;2023-09-19T00:37:34;1.80;;;1.10;;
7983;SDS011;4037;47.980;10.172;2023-09-19T00:40:01;2.87;;;1.20;;
7983;SDS011;4037;47.980;10.172;2023-09-19T00:42:27;1.67;;;1.30;;
7983;SDS011;4037;47.980;10.172;2023-09-19T00:44:53;1.70;;;1.03;;
7983;SDS011;4037;47.980;10.172;2023-09-19T00:47:19;1.67;;;1.13;;
7983;SDS011;4037;47.980;10.172;2023-09-19T00:49:46;1.93;;;1.17;;
7983;SDS011;4037;47.980;10.172;2023-09-19T00:52:15;1.27;;;1.17;;
7983;SDS011;4037;47.980;10.172;2023-09-19T00:54:45;1.93;;;1.20;;
7983;SDS011;4037;47.980;10.172;2023-09-19T00:57:11;2.70;;;1.43;;
7983;SDS011;4037;47.980;10.172;2023-09-19T00:59:39;1.73;;;1.27;;
7983;SDS011;4037;47.980;10.172;2023-09-19T01:02:06;3.30;;;1.33;;
7983;SDS011;4037;47.980;10.172;2023-09-19T01:04:33;1.20;;;1.10;;
7983;SDS011;4037;47.980;10.172;2023-09-19T01:06:59;1.40;;;1.10;;
7983;SDS011;4037;47.980;10.172;2023-09-19T01:09:25;1.20;;;1.10;;
7983;SDS011;4037;47.980;10.172;2023-09-19T01:11:53;1.30;;;1.20;;
7983;SDS011;4037;47.980;10.172;2023-09-19T01:14:31;1.37;;;1.27;;
7983;SDS011;4037;47.980;10.172;2023-09-19T01:22:11;1.73;;;1.30;;
7983;SDS011;4037;47.980;10.172;2023-09-19T01:27:16;3.20;;;1.30;;
7983;SDS011;4037;47.980;10.172;2023-09-19T01:29:47;1.53;;;1.30;;
7983;SDS011;4037;47.980;10.172;2023-09-19T01:32:17;1.70;;;1.13;;
7983;SDS011;4037;47.980;10.172;2023-09-19T01:37:14;2.30;;;1.47;;
7983;SDS011;4037;47.980;10.172;2023-09-19T01:39:43;2.87;;;1.27;;
7983;SDS011;4037;47.980;10.172;2023-09-19T01:42:12;2.47;;;1.40;;
7983;SDS011;4037;47.980;10.172;2023-09-19T01:47:09;1.83;;;1.20;;
7983;SDS011;4037;47.980;10.172;2023-09-19T01:49:41;1.80;;;1.60;;
7983;SDS011;4037;47.980;10.172;2023-09-19T01:52:11;1.63;;;1.53;;
7983;SDS011;4037;47.980;10.172;2023-09-19T01:54:51;3.23;;;1.60;;
7983;SDS011;4037;47.980;10.172;2023-09-19T01:57:32;3.73;;;1.60;;
7983;SDS011;4037;47.980;10.172;2023-09-19T02:00:02;2.57;;;1.63;;
7983;SDS011;4037;47.980;10.172;2023-09-19T02:02:35;1.73;;;1.43;;
7983;SDS011;4037;47.980;10.172;2023-09-19T02:05:02;1.50;;;1.37;;
7983;SDS011;4037;47.980;10.172;2023-09-19T02:07:29;1.50;;;1.30;;
7983;SDS011;4037;47.980;10.172;2023-09-19T02:09:57;2.70;;;2.00;;
7983;SDS011;4037;47.980;10.172;2023-09-19T02:12:25;1.77;;;1.57;;
7983;SDS011;4037;47.980;10.172;2023-09-19T02:14:51;2.43;;;1.50;;
7983;SDS011;4037;47.980;10.172;2023-09-19T02:17:17;2.47;;;1.50;;
7983;SDS011;4037;47.980;10.172;2023-09-19T02:19:43;2.23;;;1.60;;
7983;SDS011;4037;47.980;10.172;2023-09-19T02:22:09;4.63;;;1.60;;
7983;SDS011;4037;47.980;10.172;2023-09-19T02:24:35;1.93;;;1.53;;
7983;SDS011;4037;47.980;10.172;2023-09-19T02:27:02;2.73;;;1.83;;
7983;SDS011;4037;47.980;10.172;2023-09-19T02:29:31;2.57;;;2.00;;
7983;SDS011;4037;47.980;10.172;2023-09-19T02:31:59;2.80;;;1.53;;
7983;SDS011;4037;47.980;10.172;2023-09-19T02:34:26;5.63;;;1.30;;
7983;SDS011;4037;47.980;10.172;2023-09-19T02:36:52;1.57;;;1.40;;
7983;SDS011;4037;47.980;10.172;2023-09-19T02:39:20;3.33;;;1.57;;
7983;SDS011;4037;47.980;10.172;2023-09-19T02:41:46;1.93;;;1.43;;
7983;SDS011;4037;47.980;10.172;2023-09-19T02:44:12;1.80;;;1.40;;
7983;SDS011;4037;47.980;10.172;2023-09-19T02:46:39;1.53;;;1.43;;
7983;SDS011;4037;47.980;10.172;2023-09-19T02:49:05;2.13;;;1.60;;
7983;SDS011;4037;47.980;10.172;2023-09-19T02:51:31;1.90;;;1.40;;
7983;SDS011;4037;47.980;10.172;2023-09-19T02:54:01;2.80;;;1.83;;
7983;SDS011;4037;47.980;10.172;2023-09-19T02:56:28;2.43;;;1.60;;
7983;SDS011;4037;47.980;10.172;2023-09-19T02:58:55;2.37;;;1.20;;
7983;SDS011;4037;47.980;10.172;2023-09-19T03:01:22;2.93;;;1.60;;
7983;SDS011;4037;47.980;10.172;2023-09-19T03:03:48;1.83;;;1.37;;
7983;SDS011;4037;47.980;10.172;2023-09-19T03:06:14;1.87;;;1.27;;
7983;SDS011;4037;47.980;10.172;2023-09-19T03:08:45;3.80;;;1.60;;
7983;SDS011;4037;47.980;10.172;2023-09-19T03:11:11;3.10;;;1.70;;
7983;SDS011;4037;47.980;10.172;2023-09-19T03:13:40;2.87;;;1.83;;
7983;SDS011;4037;47.980;10.172;2023-09-19T03:16:06;3.47;;;1.67;;
7983;SDS011;4037;47.980;10.172;2023-09-19T03:18:36;1.33;;;1.23;;
7983;SDS011;4037;47.980;10.172;2023-09-19T03:21:02;1.73;;;1.33;;
7983;SDS011;4037;47.980;10.172;2023-09-19T03:23:28;1.87;;;1.33;;
7983;SDS011;4037;47.980;10.172;2023-09-19T03:25:55;2.20;;;1.60;;
7983;SDS011;4037;47.980;10.172;2023-09-19T03:28:21;1.53;;;1.30;;
7983;SDS011;4037;47.980;10.172;2023-09-19T03:30:58;4.97;;;1.60;;
7983;SDS011;4037;47.980;10.172;2023-09-19T03:33:25;1.60;;;1.50;;
7983;SDS011;4037;47.980;10.172;2023-09-19T03:35:54;1.50;;;1.40;;
7983;SDS011;4037;47.980;10.172;2023-09-19T03:38:20;2.93;;;1.60;;
7983;SDS011;4037;47.980;10.172;2023-09-19T03:40:47;1.37;;;1.23;;
7983;SDS011;4037;47.980;10.172;2023-09-19T03:43:14;1.83;;;1.50;;
7983;SDS011;4037;47.980;10.172;2023-09-19T03:45:39;2.40;;;1.20;;
7983;SDS011;4037;47.980;10.172;2023-09-19T03:48:09;1.70;;;1.30;;
7983;SDS011;4037;47.980;10.172;2023-09-19T03:50:35;1.97;;;1.30;;
7983;SDS011;4037;47.980;10.172;2023-09-19T03:53:01;1.33;;;1.20;;
7983;SDS011;4037;47.980;10.172;2023-09-19T03:55:27;1.70;;;1.60;;
7983;SDS011;4037;47.980;10.172;2023-09-19T03:57:55;1.60;;;1.50;;
7983;SDS011;4037;47.980;10.172;2023-09-19T04:00:21;1.40;;;1.30;;
7983;SDS011;4037;47.980;10.172;2023-09-19T04:02:49;1.50;;;1.30;;
7983;SDS011;4037;47.980;10.172;2023-09-19T04:05:17;1.83;;;1.40;;
7983;SDS011;4037;47.980;10.172;2023-09-19T04:07:43;1.30;;;1.20;;
7983;SDS011;4037;47.980;10.172;2023-09-19T04:10:09;1.87;;;1.27;;
7983;SDS011;4037;47.980;10.172;2023-09-19T04:12:36;1.40;;;1.30;;
7983;SDS011;4037;47.980;10.172;2023-09-19T04:15:03;1.57;;;1.20;;
7983;SDS011;4037;47.980;10.172;2023-09-19T04:17:29;2.60;;;1.50;;
7983;SDS011;4037;47.980;10.172;2023-09-19T04:19:55;1.63;;;1.50;;
7983;SDS011;4037;47.980;10.172;2023-09-19T04:22:21;2.20;;;1.57;;
7983;SDS011;4037;47.980;10.172;2023-09-19T04:24:47;2.07;;;1.70;;
7983;SDS011;4037;47.980;10.172;2023-09-19T04:27:13;2.20;;;1.20;;
7983;SDS011;4037;47.980;10.172;2023-09-19T04:29:39;2.30;;;1.30;;
7983;SDS011;4037;47.980;10.172;2023-09-19T04:32:06;2.17;;;1.20;;
7983;SDS011;4037;47.980;10.172;2023-09-19T04:34:33;2.23;;;1.47;;
7983;SDS011;4037;47.980;10.172;2023-09-19T04:37:08;1.93;;;1.40;;
7983;SDS011;4037;47.980;10.172;2023-09-19T04:39:34;2.50;;;1.47;;
7983;SDS011;4037;47.980;10.172;2023-09-19T04:42:00;3.43;;;1.50;;
7983;SDS011;4037;47.980;10.172;2023-09-19T04:44:26;1.40;;;1.30;;
7983;SDS011;4037;47.980;10.172;2023-09-19T04:46:52;1.13;;;1.03;;
7983;SDS011;4037;47.980;10.172;2023-09-19T04:49:18;1.53;;;1.10;;
7983;SDS011;4037;47.980;10.172;2023-09-19T04:51:45;1.27;;;1.17;;
7983;SDS011;4037;47.980;10.172;2023-09-19T04:54:12;2.80;;;1.20;;
7983;SDS011;4037;47.980;10.172;2023-09-19T04:56:38;1.40;;;1.30;;
7983;SDS011;4037;47.980;10.172;2023-09-19T04:59:05;1.30;;;1.20;;
7983;SDS011;4037;47.980;10.172;2023-09-19T05:01:31;2.47;;;1.30;;
7983;SDS011;4037;47.980;10.172;2023-09-19T05:03:57;1.13;;;0.90;;
7983;SDS011;4037;47.980;10.172;2023-09-19T05:06:23;1.57;;;1.40;;
7983;SDS011;4037;47.980;10.172;2023-09-19T05:08:51;1.20;;;1.10;;
7983;SDS011;4037;47.980;10.172;2023-09-19T05:11:21;2.00;;;1.40;;
7983;SDS011;4037;47.980;10.172;2023-09-19T05:13:47;1.57;;;1.20;;
7983;SDS011;4037;47.980;10.172;2023-09-19T05:16:15;1.40;;;1.20;;
7983;SDS011;4037;47.980;10.172;2023-09-19T05:18:41;2.70;;;1.23;;
7983;SDS011;4037;47.980;10.172;2023-09-19T05:21:07;1.40;;;1.30;;
7983;SDS011;4037;47.980;10.172;2023-09-19T05:23:33;1.80;;;1.37;;
7983;SDS011;4037;47.980;10.172;2023-09-19T05:25:59;2.47;;;1.30;;
7983;SDS011;4037;47.980;10.172;2023-09-19T05:28:26;1.40;;;1.30;;
7983;SDS011;4037;47.980;10.172;2023-09-19T05:30:53;2.83;;;1.43;;
7983;SDS011;4037;47.980;10.172;2023-09-19T05:33:19;1.73;;;1.30;;
7983;SDS011;4037;47.980;10.172;2023-09-19T05:35:45;2.57;;;1.47;;
7983;SDS011;4037;47.980;10.172;2023-09-19T05:38:12;1.73;;;1.30;;
7983;SDS011;4037;47.980;10.172;2023-09-19T05:40:39;1.33;;;1.00;;
7983;SDS011;4037;47.980;10.172;2023-09-19T05:43:07;4.10;;;1.50;;
7983;SDS011;4037;47.980;10.172;2023-09-19T05:45:33;1.90;;;1.10;;
7983;SDS011;4037;47.980;10.172;2023-09-19T05:48:10;1.10;;;1.00;;
7983;SDS011;4037;47.980;10.172;2023-09-19T05:50:39;3.00;;;1.40;;
7983;SDS011;4037;47.980;10.172;2023-09-19T05:53:05;2.70;;;1.47;;
7983;SDS011;4037;47.980;10.172;2023-09-19T05:55:32;2.23;;;1.10;;
7983;SDS011;4037;47.980;10.172;2023-09-19T05:57:58;2.33;;;1.30;;
7983;SDS011;4037;47.980;10.172;2023-09-19T06:00:24;2.53;;;1.10;;
7983;SDS011;4037;47.980;10.172;2023-09-19T06:02:56;2.13;;;1.20;;
7983;SDS011;4037;47.980;10.172;2023-09-19T06:05:22;1.83;;;1.30;;
7983;SDS011;4037;47.980;10.172;2023-09-19T06:07:49;1.37;;;1.17;;
7983;SDS011;4037;47.980;10.172;2023-09-19T06:10:17;3.63;;;1.37;;
7983;SDS011;4037;47.980;10.172;2023-09-19T06:12:43;2.97;;;1.40;;
7983;SDS011;4037;47.980;10.172;2023-09-19T06:15:09;2.30;;;1.67;;
7983;SDS011;4037;47.980;10.172;2023-09-19T06:17:40;1.93;;;1.47;;
7983;SDS011;4037;47.980;10.172;2023-09-19T06:20:06;1.60;;;1.50;;
7983;SDS011;4037;47.980;10.172;2023-09-19T06:22:39;2.93;;;1.10;;
7983;SDS011;4037;47.980;10.172;2023-09-19T06:25:06;1.33;;;1.20;;
7983;SDS011;4037;47.980;10.172;2023-09-19T06:27:32;1.40;;;1.30;;
7983;SDS011;4037;47.980;10.172;2023-09-19T06:30:01;2.70;;;1.43;;
7983;SDS011;4037;47.980;10.172;2023-09-19T06:32:28;1.60;;;1.30;;
7983;SDS011;4037;47.980;10.172;2023-09-19T06:34:54;3.83;;;1.30;;
7983;SDS011;4037;47.980;10.172;2023-09-19T06:37:20;1.30;;;1.20;;
7983;SDS011;4037;47.980;10.172;2023-09-19T06:39:47;1.73;;;1.30;;
7983;SDS011;4037;47.980;10.172;2023-09-19T06:42:14;2.33;;;1.30;;
7983;SDS011;4037;47.980;10.172;2023-09-19T06:44:42;1.50;;;1.20;;
7983;SDS011;4037;47.980;10.172;2023-09-19T06:47:08;1.57;;;1.10;;
7983;SDS011;4037;47.980;10.172;2023-09-19T06:49:35;2.70;;;1.20;;
7983;SDS011;4037;47.980;10.172;2023-09-19T06:52:01;1.87;;;1.10;;
7983;SDS011;4037;47.980;10.172;2023-09-19T06:54:27;1.73;;;1.10;;
7983;SDS011;4037;47.980;10.172;2023-09-19T06:56:56;1.07;;;1.00;;
7983;SDS011;4037;47.980;10.172;2023-09-19T06:59:25;1.03;;;0.80;;
7983;SDS011;4037;47.980;10.172;2023-09-19T07:01:51;2.23;;;1.03;;
7983;SDS011;4037;47.980;10.172;2023-09-19T07:04:17;1.07;;;0.93;;
7983;SDS011;4037;47.980;10.172;2023-09-19T07:06:44;2.37;;;1.20;;
7983;SDS011;4037;47.980;10.172;2023-09-19T07:09:15;2.27;;;0.90;;
7983;SDS011;4037;47.980;10.172;2023-09-19T07:11:41;1.30;;;1.00;;
7983;SDS011;4037;47.980;10.172;2023-09-19T07:14:07;1.17;;;1.07;;
7983;SDS011;4037;47.980;10.172;2023-09-19T07:16:36;1.07;;;0.90;;
7983;SDS011;4037;47.980;10.172;2023-09-19T07:19:03;1.20;;;1.00;;
7983;SDS011;4037;47.980;10.172;2023-09-19T07:21:29;1.13;;;1.03;;
7983;SDS011;4037;47.980;10.172;2023-09-19T07:23:59;1.43;;;0.90;;
7983;SDS011;4037;47.980;10.172;2023-09-19T07:26:26;0.93;;;0.87;;
7983;SDS011;4037;47.980;10.172;2023-09-19T07:28:53;2.00;;;1.20;;
7983;SDS011;4037;47.980;10.172;2023-09-19T07:31:19;2.33;;;1.10;;
7983;SDS011;4037;47.980;10.172;2023-09-19T07:33:45;0.90;;;0.90;;
7983;SDS011;4037;47.980;10.172;2023-09-19T07:36:11;0.80;;;0.77;;
7983;SDS011;4037;47.980;10.172;2023-09-19T07:38:41;1.83;;;1.00;;
7983;SDS011;4037;47.980;10.172;2023-09-19T07:41:08;1.10;;;0.87;;
7983;SDS011;4037;47.980;10.172;2023-09-19T07:43:34;2.73;;;1.10;;
7983;SDS011;4037;47.980;10.172;2023-09-19T07:46:07;1.17;;;0.90;;
7983;SDS011;4037;47.980;10.172;2023-09-19T07:48:36;3.17;;;1.10;;
7983;SDS011;4037;47.980;10.172;2023-09-19T07:51:06;1.37;;;0.90;;
7983;SDS011;4037;47.980;10.172;2023-09-19T07:53:33;1.93;;;0.90;;
7983;SDS011;4037;47.980;10.172;2023-09-19T07:56:05;1.10;;;1.00;;
7983;SDS011;4037;47.980;10.172;2023-09-19T07:58:33;4.50;;;1.20;;
7983;SDS011;4037;47.980;10.172;2023-09-19T08:01:02;1.93;;;1.00;;
7983;SDS011;4037;47.980;10.172;2023-09-19T08:03:28;2.87;;;1.00;;
7983;SDS011;4037;47.980;10.172;2023-09-19T08:05:56;1.63;;;1.00;;
7983;SDS011;4037;47.980;10.172;2023-09-19T08:08:22;0.93;;;0.90;;
7983;SDS011;4037;47.980;10.172;2023-09-19T08:10:52;2.47;;;1.10;;
7983;SDS011;4037;47.980;10.172;2023-09-19T08:13:18;2.80;;;1.00;;
7983;SDS011;4037;47.980;10.172;2023-09-19T08:15:46;1.10;;;1.00;;
7983;SDS011;4037;47.980;10.172;2023-09-19T08:18:13;1.00;;;0.90;;
7983;SDS011;4037;47.980;10.172;2023-09-19T08:20:39;1.67;;;1.20;;
7983;SDS011;4037;47.980;10.172;2023-09-19T08:23:07;1.20;;;0.70;;
7983;SDS011;4037;47.980;10.172;2023-09-19T08:25:34;1.73;;;1.07;;
7983;SDS011;4037;47.980;10.172;2023-09-19T08:28:00;2.70;;;1.13;;
7983;SDS011;4037;47.980;10.172;2023-09-19T08:30:28;1.53;;;1.00;;
7983;SDS011;4037;47.980;10.172;2023-09-19T08:33:01;1.60;;;1.17;;
7983;SDS011;4037;47.980;10.172;2023-09-19T08:35:30;1.27;;;1.00;;
7983;SDS011;4037;47.980;10.172;2023-09-19T08:37:56;1.03;;;0.90;;
7983;SDS011;4037;47.980;10.172;2023-09-19T08:40:22;2.07;;;1.23;;
7983;SDS011;4037;47.980;10.172;2023-09-19T08:45:15;1.67;;;1.13;;
7983;SDS011;4037;47.980;10.172;2023-09-19T08:47:45;1.50;;;1.20;;
7983;SDS011;4037;47.980;10.172;2023-09-19T08:52:42;1.57;;;0.83;;
7983;SDS011;4037;47.980;10.172;2023-09-19T08:55:12;2.27;;;1.10;;
7983;SDS011;4037;47.980;10.172;2023-09-19T08:57:38;1.10;;;0.93;;
7983;SDS011;4037;47.980;10.172;2023-09-19T09:00:07;3.40;;;0.90;;
7983;SDS011;4037;47.980;10.172;2023-09-19T09:02:40;2.47;;;0.93;;
7983;SDS011;4037;47.980;10.172;2023-09-19T09:05:07;1.67;;;1.13;;
7983;SDS011;4037;47.980;10.172;2023-09-19T09:07:35;1.67;;;1.00;;
7983;SDS011;4037;47.980;10.172;2023-09-19T09:10:02;1.33;;;1.10;;
7983;SDS011;4037;47.980;10.172;2023-09-19T09:12:28;0.70;;;0.70;;
7983;SDS011;4037;47.980;10.172;2023-09-19T09:14:55;1.67;;;1.20;;
7983;SDS011;4037;47.980;10.172;2023-09-19T09:17:22;2.47;;;1.13;;
7983;SDS011;4037;47.980;10.172;2023-09-19T09:19:51;2.03;;;1.23;;
7983;SDS011;4037;47.980;10.172;2023-09-19T09:22:17;1.60;;;0.90;;
7983;SDS011;4037;47.980;10.172;2023-09-19T09:27:29;1.30;;;1.20;;
7983;SDS011;4037;47.980;10.172;2023-09-19T09:29:56;1.03;;;0.90;;
7983;SDS011;4037;47.980;10.172;2023-09-19T09:32:29;1.23;;;0.90;;
7983;SDS011;4037;47.980;10.172;2023-09-19T09:34:58;3.00;;;1.30;;
7983;SDS011;4037;47.980;10.172;2023-09-19T09:37:25;1.57;;;1.10;;
7983;SDS011;4037;47.980;10.172;2023-09-19T09:39:59;1.37;;;0.93;;
7983;SDS011;4037;47.980;10.172;2023-09-19T09:42:44;1.10;;;0.97;;
7983;SDS011;4037;47.980;10.172;2023-09-19T09:45:15;1.50;;;1.10;;
7983;SDS011;4037;47.980;10.172;2023-09-19T09:47:46;1.53;;;1.00;;
7983;SDS011;4037;47.980;10.172;2023-09-19T09:50:24;2.60;;;0.90;;
7983;SDS011;4037;47.980;10.172;2023-09-19T09:52:54;1.00;;;0.90;;
7983;SDS011;4037;47.980;10.172;2023-09-19T09:55:28;1.67;;;1.10;;
7983;SDS011;4037;47.980;10.172;2023-09-19T10:00:57;1.40;;;0.83;;
7983;SDS011;4037;47.980;10.172;2023-09-19T10:03:40;1.10;;;0.97;;
7983;SDS011;4037;47.980;10.172;2023-09-19T10:06:10;1.07;;;0.90;;
7983;SDS011;4037;47.980;10.172;2023-09-19T10:09:01;0.87;;;0.73;;
7983;SDS011;4037;47.980;10.172;2023-09-19T10:14:05;1.20;;;1.10;;
7983;SDS011;4037;47.980;10.172;2023-09-19T10:16:35;1.33;;;1.20;;
7983;SDS011;4037;47.980;10.172;2023-09-19T10:19:04;1.47;;;0.87;;
7983;SDS011;4037;47.980;10.172;2023-09-19T10:21:31;1.53;;;0.83;;
7983;SDS011;4037;47.980;10.172;2023-09-19T10:24:00;2.57;;;1.00;;
7983;SDS011;4037;47.980;10.172;2023-09-19T10:26:29;1.27;;;1.00;;
7983;SDS011;4037;47.980;10.172;2023-09-19T10:28:56;1.20;;;0.90;;
7983;SDS011;4037;47.980;10.172;2023-09-19T10:31:24;5.13;;;1.03;;
7983;SDS011;4037;47.980;10.172;2023-09-19T10:33:51;1.80;;;1.00;;
7983;SDS011;4037;47.980;10.172;2023-09-19T10:36:20;1.23;;;1.13;;
7983;SDS011;4037;47.980;10.172;2023-09-19T10:38:46;1.73;;;0.90;;
7983;SDS011;4037;47.980;10.172;2023-09-19T10:41:13;1.60;;;1.07;;
7983;SDS011;4037;47.980;10.172;2023-09-19T10:43:40;1.73;;;1.10;;
7983;SDS011;4037;47.980;10.172;2023-09-19T10:46:09;0.73;;;0.70;;
7983;SDS011;4037;47.980;10.172;2023-09-19T10:48:37;1.07;;;0.97;;
7983;SDS011;4037;47.980;10.172;2023-09-19T10:51:08;2.50;;;1.17;;
7983;SDS011;4037;47.980;10.172;2023-09-19T10:56:26;1.53;;;1.27;;
7983;SDS011;4037;47.980;10.172;2023-09-19T10:59:10;1.87;;;1.27;;
7983;SDS011;4037;47.980;10.172;2023-09-19T11:07:10;1.20;;;0.90;;
7983;SDS011;4037;47.980;10.172;2023-09-19T11:09:47;1.50;;;1.10;;
7983;SDS011;4037;47.980;10.172;2023-09-19T11:15:00;0.80;;;0.80;;
7983;SDS011;4037;47.980;10.172;2023-09-19T11:17:36;3.57;;;0.90;;
7983;SDS011;4037;47.980;10.172;2023-09-19T11:30:36;0.80;;;0.80;;
7983;SDS011;4037;47.980;10.172;2023-09-19T11:33:15;1.33;;;1.00;;
7983;SDS011;4037;47.980;10.172;2023-09-19T11:39:10;1.20;;;0.80;;
7983;SDS011;4037;47.980;10.172;2023-09-19T11:43:47;2.07;;;1.00;;
7983;SDS011;4037;47.980;10.172;2023-09-19T11:46:13;3.73;;;0.93;;
7983;SDS011;4037;47.980;10.172;2023-09-19T11:48:41;1.30;;;0.83;;
7983;SDS011;4037;47.980;10.172;2023-09-19T11:51:12;1.37;;;1.03;;
7983;SDS011;4037;47.980;10.172;2023-09-19T11:53:47;1.90;;;1.00;;
7983;SDS011;4037;47.980;10.172;2023-09-19T11:56:17;1.53;;;1.10;;
7983;SDS011;4037;47.980;10.172;2023-09-19T11:58:44;2.07;;;0.83;;
7983;SDS011;4037;47.980;10.172;2023-09-19T12:01:14;2.87;;;0.90;;
7983;SDS011;4037;47.980;10.172;2023-09-19T12:03:45;1.00;;;0.90;;
7983;SDS011;4037;47.980;10.172;2023-09-19T12:06:13;1.87;;;1.47;;
7983;SDS011;4037;47.980;10.172;2023-09-19T12:08:40;1.30;;;1.00;;
7983;SDS011;4037;47.980;10.172;2023-09-19T12:11:08;2.97;;;1.30;;
7983;SDS011;4037;47.980;10.172;2023-09-19T12:13:41;2.23;;;1.40;;
7983;SDS011;4037;47.980;10.172;2023-09-19T12:16:15;2.00;;;0.90;;
7983;SDS011;4037;47.980;10.172;2023-09-19T12:18:41;1.30;;;1.00;;
7983;SDS011;4037;47.980;10.172;2023-09-19T12:24:07;1.17;;;1.00;;
7983;SDS011;4037;47.980;10.172;2023-09-19T12:26:41;1.37;;;0.80;;
7983;SDS011;4037;47.980;10.172;2023-09-19T12:29:15;1.03;;;0.80;;
7983;SDS011;4037;47.980;10.172;2023-09-19T12:34:16;1.80;;;1.13;;
7983;SDS011;4037;47.980;10.172;2023-09-19T12:36:44;1.33;;;1.08;;
7983;SDS011;4037;47.980;10.172;2023-09-19T12:39:10;2.45;;;0.90;;
7983;SDS011;4037;47.980;10.172;2023-09-19T12:41:37;0.80;;;0.70;;
7983;SDS011;4037;47.980;10.172;2023-09-19T12:44:04;1.30;;;1.00;;
7983;SDS011;4037;47.980;10.172;2023-09-19T12:46:34;2.17;;;1.00;;
7983;SDS011;4037;47.980;10.172;2023-09-19T12:49:16;1.67;;;1.00;;
7983;SDS011;4037;47.980;10.172;2023-09-19T12:51:42;2.50;;;0.82;;
7983;SDS011;4037;47.980;10.172;2023-09-19T12:54:09;4.22;;;1.00;;
7983;SDS011;4037;47.980;10.172;2023-09-19T12:56:40;1.27;;;0.98;;
7983;SDS011;4037;47.980;10.172;2023-09-19T12:59:11;2.00;;;0.73;;
7983;SDS011;4037;47.980;10.172;2023-09-19T13:01:38;1.15;;;1.05;;
7983;SDS011;4037;47.980;10.172;2023-09-19T13:04:15;1.17;;;0.70;;
7983;SDS011;4037;47.980;10.172;2023-09-19T13:06:48;1.27;;;1.00;;
7983;SDS011;4037;47.980;10.172;2023-09-19T13:09:15;1.13;;;1.00;;
7983;SDS011;4037;47.980;10.172;2023-09-19T13:11:41;2.30;;;1.00;;
7983;SDS011;4037;47.980;10.172;2023-09-19T13:14:13;3.28;;;0.95;;
7983;SDS011;4037;47.980;10.172;2023-09-19T13:16:53;3.33;;;1.00;;
7983;SDS011;4037;47.980;10.172;2023-09-19T13:19:41;0.98;;;0.95;;
7983;SDS011;4037;47.980;10.172;2023-09-19T13:22:35;1.27;;;0.77;;
7983;SDS011;4037;47.980;10.172;2023-09-19T13:24:51;1.50;;;1.00;;
7983;SDS011;4037;47.980;10.172;2023-09-19T13:27:17;0.90;;;0.80;;
7983;SDS011;4037;47.980;10.172;2023-09-19T13:29:43;3.00;;;0.70;;
7983;SDS011;4037;47.980;10.172;2023-09-19T13:32:09;0.90;;;0.80;;
7983;SDS011;4037;47.980;10.172;2023-09-19T13:34:36;1.88;;;1.10;;
7983;SDS011;4037;47.980;10.172;2023-09-19T13:37:03;0.85;;;0.77;;
7983;SDS011;4037;47.980;10.172;2023-09-19T13:39:29;1.00;;;0.70;;
7983;SDS011;4037;47.980;10.172;2023-09-19T13:41:55;1.92;;;1.13;;
7983;SDS011;4037;47.980;10.172;2023-09-19T13:44:21;0.88;;;0.65;;
7983;SDS011;4037;47.980;10.172;2023-09-19T13:46:48;0.80;;;0.65;;
7983;SDS011;4037;47.980;10.172;2023-09-19T13:49:14;1.33;;;1.02;;
7983;SDS011;4037;47.980;10.172;2023-09-19T13:51:40;3.38;;;0.95;;
7983;SDS011;4037;47.980;10.172;2023-09-19T13:54:08;1.02;;;0.90;;
7983;SDS011;4037;47.980;10.172;2023-09-19T13:56:36;1.48;;;0.93;;
7983;SDS011;4037;47.980;10.172;2023-09-19T13:59:03;1.70;;;0.90;;
7983;SDS011;4037;47.980;10.172;2023-09-19T14:01:29;1.23;;;0.80;;
7983;SDS011;4037;47.980;10.172;2023-09-19T14:03:55;0.80;;;0.80;;
7983;SDS011;4037;47.980;10.172;2023-09-19T14:06:22;1.83;;;0.93;;
7983;SDS011;4037;47.980;10.172;2023-09-19T14:08:48;1.25;;;0.98;;
7983;SDS011;4037;47.980;10.172;2023-09-19T14:11:15;1.25;;;0.80;;
7983;SDS011;4037;47.980;10.172;2023-09-19T14:13:41;2.10;;;1.00;;
7983;SDS011;4037;47.980;10.172;2023-09-19T14:16:12;1.33;;;0.80;;
7983;SDS011;4037;47.980;10.172;2023-09-19T14:18:38;2.67;;;1.02;;
7983;SDS011;4037;47.980;10.172;2023-09-19T14:21:05;1.08;;;0.80;;
7983;SDS011;4037;47.980;10.172;2023-09-19T14:23:37;1.15;;;0.85;;
7983;SDS011;4037;47.980;10.172;2023-09-19T14:26:04;1.42;;;1.00;;
7983;SDS011;4037;47.980;10.172;2023-09-19T14:28:30;1.45;;;1.13;;
7983;SDS011;4037;47.980;10.172;2023-09-19T14:31:03;1.42;;;1.02;;
7983;SDS011;4037;47.980;10.172;2023-09-19T14:33:29;1.55;;;0.90;;
7983;SDS011;4037;47.980;10.172;2023-09-19T14:35:56;1.48;;;1.00;;
7983;SDS011;4037;47.980;10.172;2023-09-19T14:38:22;1.08;;;0.85;;
7983;SDS011;4037;47.980;10.172;2023-09-19T14:40:48;2.88;;;1.20;;
7983;SDS011;4037;47.980;10.172;2023-09-19T14:43:15;1.42;;;0.60;;
7983;SDS011;4037;47.980;10.172;2023-09-19T14:45:41;1.15;;;0.68;;
7983;SDS011;4037;47.980;10.172;2023-09-19T14:48:07;1.25;;;0.80;;
7983;SDS011;4037;47.980;10.172;2023-09-19T14:50:33;2.00;;;1.10;;
7983;SDS011;4037;47.980;10.172;2023-09-19T14:52:59;1.50;;;1.10;;
7983;SDS011;4037;47.980;10.172;2023-09-19T14:55:27;3.13;;;0.95;;
7983;SDS011;4037;47.980;10.172;2023-09-19T14:57:54;0.70;;;0.70;;
7983;SDS011;4037;47.980;10.172;2023-09-19T15:00:23;2.42;;;1.00;;
7983;SDS011;4037;47.980;10.172;2023-09-19T15:02:49;1.17;;;0.80;;
7983;SDS011;4037;47.980;10.172;2023-09-19T15:05:16;4.55;;;1.15;;
7983;SDS011;4037;47.980;10.172;2023-09-19T15:07:42;1.13;;;1.02;;
7983;SDS011;4037;47.980;10.172;2023-09-19T15:10:08;3.50;;;1.10;;
7983;SDS011;4037;47.980;10.172;2023-09-19T15:12:35;2.33;;;1.55;;
7983;SDS011;4037;47.980;10.172;2023-09-19T15:15:03;1.38;;;1.00;;
7983;SDS011;4037;47.980;10.172;2023-09-19T15:17:30;1.63;;;1.10;;
7983;SDS011;4037;47.980;10.172;2023-09-19T15:19:56;1.95;;;1.10;;
7983;SDS011;4037;47.980;10.172;2023-09-19T15:22:22;2.78;;;1.10;;
7983;SDS011;4037;47.980;10.172;2023-09-19T15:24:49;2.33;;;0.98;;
7983;SDS011;4037;47.980;10.172;2023-09-19T15:27:16;1.95;;;0.80;;
7983;SDS011;4037;47.980;10.172;2023-09-19T15:29:44;1.43;;;1.33;;
7983;SDS011;4037;47.980;10.172;2023-09-19T15:32:10;3.57;;;1.30;;
7983;SDS011;4037;47.980;10.172;2023-09-19T15:34:36;1.70;;;1.08;;
7983;SDS011;4037;47.980;10.172;2023-09-19T15:37:04;1.20;;;1.00;;
7983;SDS011;4037;47.980;10.172;2023-09-19T15:39:30;1.85;;;1.10;;
7983;SDS011;4037;47.980;10.172;2023-09-19T15:41:59;2.70;;;1.10;;
7983;SDS011;4037;47.980;10.172;2023-09-19T15:44:25;3.97;;;1.20;;
7983;SDS011;4037;47.980;10.172;2023-09-19T15:46:52;3.08;;;1.10;;
7983;SDS011;4037;47.980;10.172;2023-09-19T15:49:18;1.77;;;1.20;;
7983;SDS011;4037;47.980;10.172;2023-09-19T15:51:44;1.80;;;1.08;;
7983;SDS011;4037;47.980;10.172;2023-09-19T15:54:11;2.50;;;1.20;;
7983;SDS011;4037;47.980;10.172;2023-09-19T15:56:40;1.80;;;1.10;;
7983;SDS011;4037;47.980;10.172;2023-09-19T15:59:07;1.07;;;0.97;;
7983;SDS011;4037;47.980;10.172;2023-09-19T16:01:34;1.33;;;1.10;;
7983;SDS011;4037;47.980;10.172;2023-09-19T16:04:00;1.10;;;1.00;;